Wetterdaten: Woche 05.08.13 - 11.08.13 (KW32)
Datum Zeit Temp. A. Feuchte A. Luftdruck Regen Wind Richtung Taupunkt Windchill Windben
05.08.2013 00:00 13,6 C 93 % 1020,9 hPa 0,0 l/m 0,0 km/h (0 Bft) N 12,6 C 13,6 C 0,0 km/h (0 Bft)
05.08.2013 01:00 13,1 C 94 % 1020,9 hPa 0,0 l/m 0,0 km/h (0 Bft) N 12,2 C 13,1 C 0,0 km/h (0 Bft)
05.08.2013 02:00 12,3 C 95 % 1020,7 hPa 0,0 l/m 0,0 km/h (0 Bft) N 11,5 C 12,3 C 0,0 km/h (0 Bft)
05.08.2013 03:00 11,7 C 95 % 1020,6 hPa 0,0 l/m 0,0 km/h (0 Bft) N 10,9 C 11,7 C 0,0 km/h (0 Bft)
05.08.2013 04:00 11,1 C 95 % 1020,5 hPa 0,0 l/m 0,0 km/h (0 Bft) N 10,3 C 11,1 C 0,0 km/h (0 Bft)
05.08.2013 05:00 10,7 C 96 % 1020,3 hPa 0,0 l/m 0,0 km/h (0 Bft) N 10,0 C 10,7 C 0,0 km/h (0 Bft)
05.08.2013 06:00 11,2 C 96 % 1020,0 hPa 0,0 l/m 0,0 km/h (0 Bft) N 10,6 C 11,2 C 0,0 km/h (0 Bft)
05.08.2013 07:00 14,5 C 96 % 1019,9 hPa 0,0 l/m 0,1 km/h (0 Bft) O 13,8 C 14,5 C 0,7 km/h (0 Bft)
05.08.2013 08:00 19,3 C 84 % 1019,8 hPa 0,0 l/m 3,7 km/h (1 Bft) O-SO 16,4 C 19,3 C 9,0 km/h (2 Bft)
05.08.2013 09:00 21,8 C 73 % 1019,5 hPa 0,0 l/m 5,0 km/h (1 Bft) O-SO 16,7 C 21,8 C 10,5 km/h (2 Bft)
05.08.2013 10:00 24,4 C 60 % 1019,1 hPa 0,0 l/m 5,2 km/h (1 Bft) O 16,1 C 24,4 C 12,5 km/h (2 Bft)
05.08.2013 11:00 25,8 C 55 % 1018,6 hPa 0,0 l/m 7,0 km/h (2 Bft) O-NO 16,0 C 25,7 C 15,8 km/h (3 Bft)
05.08.2013 12:00 26,6 C 52 % 1018,0 hPa 0,0 l/m 6,2 km/h (2 Bft) O 16,0 C 26,6 C 14,1 km/h (3 Bft)
05.08.2013 13:00 28,0 C 44 % 1017,4 hPa 0,0 l/m 5,6 km/h (2 Bft) O 14,5 C 27,9 C 13,0 km/h (3 Bft)
05.08.2013 14:00 28,6 C 42 % 1016,8 hPa 0,0 l/m 5,2 km/h (1 Bft) O-NO 14,3 C 28,6 C 12,9 km/h (3 Bft)
05.08.2013 15:00 28,9 C 41 % 1016,1 hPa 0,0 l/m 4,9 km/h (1 Bft) O 14,4 C 28,9 C 12,4 km/h (2 Bft)
05.08.2013 16:00 29,6 C 40 % 1015,4 hPa 0,0 l/m 5,9 km/h (2 Bft) O 14,6 C 29,5 C 13,2 km/h (3 Bft)
05.08.2013 17:00 29,3 C 41 % 1014,7 hPa 0,0 l/m 5,9 km/h (2 Bft) O-NO 14,6 C 29,3 C 12,5 km/h (2 Bft)
05.08.2013 18:00 29,1 C 43 % 1014,3 hPa 0,0 l/m 5,1 km/h (1 Bft) O-SO 15,1 C 29,1 C 10,9 km/h (2 Bft)
05.08.2013 19:00 28,0 C 48 % 1014,0 hPa 0,0 l/m 4,5 km/h (1 Bft) O-SO 15,8 C 28,0 C 10,9 km/h (2 Bft)
05.08.2013 20:00 25,8 C 54 % 1013,9 hPa 0,0 l/m 3,3 km/h (1 Bft) O-SO 15,7 C 25,8 C 8,2 km/h (2 Bft)
05.08.2013 21:00 23,7 C 60 % 1014,2 hPa 0,0 l/m 1,6 km/h (1 Bft) O-SO 15,3 C 23,7 C 4,8 km/h (1 Bft)
05.08.2013 22:00 22,7 C 61 % 1014,0 hPa 0,0 l/m 2,5 km/h (1 Bft) SO 14,8 C 22,7 C 6,9 km/h (2 Bft)
05.08.2013 23:00 22,0 C 66 % 1013,7 hPa 0,0 l/m 1,9 km/h (1 Bft) O-SO 15,3 C 22,0 C 5,9 km/h (2 Bft)
06.08.2013 00:00 20,8 C 73 % 1013,5 hPa 0,0 l/m 1,2 km/h (1 Bft) O-SO 15,7 C 20,8 C 3,9 km/h (1 Bft)
06.08.2013 01:00 20,4 C 77 % 1012,7 hPa 0,0 l/m 2,0 km/h (1 Bft) SO 16,2 C 20,4 C 5,2 km/h (1 Bft)
06.08.2013 02:00 19,7 C 80 % 1012,1 hPa 0,0 l/m 0,8 km/h (0 Bft) O-SO 16,2 C 19,7 C 3,5 km/h (1 Bft)
06.08.2013 03:00 20,2 C 81 % 1011,5 hPa 0,0 l/m 1,3 km/h (1 Bft) O-SO 16,9 C 20,2 C 5,2 km/h (1 Bft)
06.08.2013 04:00 19,9 C 83 % 1011,4 hPa 0,0 l/m 0,9 km/h (0 Bft) O-NO 17,0 C 19,9 C 3,6 km/h (1 Bft)
06.08.2013 05:00 19,9 C 86 % 1012,4 hPa 0,8 l/m 3,0 km/h (1 Bft) N-NO 17,4 C 19,8 C 7,5 km/h (2 Bft)
06.08.2013 06:00 18,8 C 90 % 1011,8 hPa 0,0 l/m 0,6 km/h (0 Bft) S 17,2 C 18,8 C 1,7 km/h (1 Bft)
06.08.2013 07:00 19,0 C 91 % 1012,3 hPa 0,0 l/m 0,3 km/h (0 Bft) SW 17,5 C 19,0 C 1,6 km/h (1 Bft)
06.08.2013 08:00 21,8 C 84 % 1012,8 hPa 0,0 l/m 2,1 km/h (1 Bft) SW 18,9 C 21,8 C 4,8 km/h (1 Bft)
06.08.2013 09:00 23,3 C 75 % 1013,4 hPa 0,0 l/m 3,6 km/h (1 Bft) W-NW 18,5 C 23,3 C 9,8 km/h (2 Bft)
06.08.2013 10:00 23,6 C 68 % 1013,7 hPa 0,0 l/m 4,9 km/h (1 Bft) SW 17,4 C 23,6 C 13,3 km/h (3 Bft)
06.08.2013 11:00 25,0 C 62 % 1013,8 hPa 0,0 l/m 5,6 km/h (2 Bft) SW 17,0 C 24,9 C 14,4 km/h (3 Bft)
06.08.2013 12:00 26,3 C 52 % 1013,8 hPa 0,0 l/m 6,9 km/h (2 Bft) S-SW 15,6 C 26,2 C 17,6 km/h (3 Bft)
06.08.2013 13:00 26,9 C 47 % 1014,0 hPa 0,0 l/m 6,1 km/h (2 Bft) S-SW 14,5 C 26,8 C 15,4 km/h (3 Bft)
06.08.2013 14:00 27,6 C 42 % 1013,9 hPa 0,0 l/m 6,4 km/h (2 Bft) W 13,4 C 27,5 C 14,6 km/h (3 Bft)
06.08.2013 15:00 27,7 C 43 % 1013,8 hPa 0,0 l/m 5,0 km/h (1 Bft) SW 14,0 C 27,7 C 13,3 km/h (3 Bft)
06.08.2013 16:00 27,4 C 43 % 1013,8 hPa 0,0 l/m 5,6 km/h (2 Bft) W-NW 13,6 C 27,4 C 15,1 km/h (3 Bft)
06.08.2013 17:00 27,7 C 43 % 1013,5 hPa 0,0 l/m 4,6 km/h (1 Bft) W-NW 14,0 C 27,7 C 11,4 km/h (2 Bft)
06.08.2013 18:00 27,1 C 45 % 1013,2 hPa 0,0 l/m 4,8 km/h (1 Bft) W 14,1 C 27,1 C 10,9 km/h (2 Bft)
06.08.2013 19:00 25,4 C 51 % 1012,9 hPa 0,0 l/m 5,5 km/h (2 Bft) NW 14,4 C 25,3 C 12,6 km/h (3 Bft)
06.08.2013 20:00 23,5 C 55 % 1013,6 hPa 0,0 l/m 2,7 km/h (1 Bft) NW 14,0 C 23,5 C 7,9 km/h (2 Bft)
06.08.2013 21:00 20,6 C 78 % 1014,4 hPa 0,8 l/m 4,5 km/h (1 Bft) N-NO 16,5 C 20,5 C 8,2 km/h (2 Bft)
06.08.2013 22:00 18,5 C 90 % 1014,3 hPa 0,4 l/m 5,1 km/h (1 Bft) N-NW 16,8 C 18,5 C 9,5 km/h (2 Bft)
06.08.2013 23:00 17,8 C 91 % 1014,6 hPa 0,0 l/m 0,5 km/h (0 Bft) NW 16,3 C 17,8 C 1,2 km/h (1 Bft)
07.08.2013 00:00 17,2 C 91 % 1014,4 hPa 0,0 l/m 1,8 km/h (1 Bft) N 15,7 C 17,2 C 3,6 km/h (1 Bft)
07.08.2013 01:00 16,3 C 92 % 1013,8 hPa 0,0 l/m 1,4 km/h (1 Bft) N-NO 15,0 C 16,3 C 3,2 km/h (1 Bft)
07.08.2013 02:00 16,0 C 93 % 1014,3 hPa 0,0 l/m 0,2 km/h (0 Bft) N 14,8 C 16,0 C 0,8 km/h (0 Bft)
07.08.2013 03:00 15,9 C 91 % 1014,2 hPa 0,0 l/m 1,8 km/h (1 Bft) N-NW 14,4 C 15,9 C 3,9 km/h (1 Bft)
07.08.2013 04:00 15,0 C 92 % 1014,2 hPa 0,0 l/m 0,2 km/h (0 Bft) N 13,7 C 15,0 C 0,5 km/h (0 Bft)
07.08.2013 05:00 14,8 C 93 % 1014,5 hPa 0,0 l/m 0,7 km/h (0 Bft) N-NW 13,7 C 14,8 C 1,6 km/h (1 Bft)
07.08.2013 06:00 14,9 C 92 % 1014,3 hPa 0,0 l/m 2,6 km/h (1 Bft) N-NO 13,6 C 14,9 C 5,3 km/h (1 Bft)
07.08.2013 07:00 15,9 C 89 % 1013,8 hPa 0,0 l/m 5,0 km/h (1 Bft) N-NO 14,1 C 15,9 C 9,5 km/h (2 Bft)
07.08.2013 08:00 17,3 C 85 % 1014,2 hPa 0,0 l/m 4,5 km/h (1 Bft) N-NO 14,7 C 17,2 C 8,8 km/h (2 Bft)
07.08.2013 09:00 18,9 C 80 % 1014,0 hPa 0,0 l/m 6,0 km/h (2 Bft) N-NO 15,4 C 18,8 C 11,6 km/h (2 Bft)
07.08.2013 10:00 20,4 C 75 % 1014,2 hPa 0,0 l/m 5,5 km/h (2 Bft) N-NO 15,9 C 20,4 C 11,2 km/h (2 Bft)
07.08.2013 11:00 21,2 C 74 % 1014,2 hPa 0,0 l/m 4,6 km/h (1 Bft) O-NO 16,3 C 21,2 C 10,5 km/h (2 Bft)
07.08.2013 12:00 21,2 C 75 % 1013,0 hPa 0,0 l/m 5,4 km/h (1 Bft) O 16,5 C 21,1 C 11,8 km/h (2 Bft)
07.08.2013 13:00 22,4 C 71 % 1012,6 hPa 0,0 l/m 8,6 km/h (2 Bft) O 16,9 C 21,7 C 17,8 km/h (3 Bft)
07.08.2013 14:00 22,9 C 70 % 1012,3 hPa 0,0 l/m 7,4 km/h (2 Bft) O 17,1 C 22,6 C 15,2 km/h (3 Bft)
07.08.2013 15:00 23,3 C 70 % 1011,9 hPa 0,0 l/m 7,3 km/h (2 Bft) O 17,6 C 23,0 C 16,1 km/h (3 Bft)
07.08.2013 16:00 22,8 C 73 % 1011,7 hPa 0,0 l/m 5,6 km/h (2 Bft) O-SO 17,6 C 22,7 C 13,4 km/h (3 Bft)
07.08.2013 17:00 22,2 C 77 % 1011,3 hPa 0,0 l/m 5,0 km/h (1 Bft) SO 17,8 C 22,2 C 12,4 km/h (2 Bft)
07.08.2013 18:00 21,9 C 78 % 1010,8 hPa 0,0 l/m 3,5 km/h (1 Bft) O-NO 17,8 C 21,9 C 9,1 km/h (2 Bft)
07.08.2013 19:00 21,7 C 79 % 1010,6 hPa 0,0 l/m 3,3 km/h (1 Bft) SO 17,9 C 21,7 C 8,4 km/h (2 Bft)
07.08.2013 20:00 21,1 C 83 % 1010,3 hPa 0,0 l/m 1,6 km/h (1 Bft) O 18,0 C 21,1 C 5,1 km/h (1 Bft)
07.08.2013 21:00 20,4 C 87 % 1009,7 hPa 0,0 l/m 3,6 km/h (1 Bft) O 18,1 C 20,4 C 8,8 km/h (2 Bft)
07.08.2013 22:00 20,6 C 86 % 1009,9 hPa 0,0 l/m 3,0 km/h (1 Bft) SO 18,2 C 20,6 C 8,4 km/h (2 Bft)
07.08.2013 23:00 20,4 C 86 % 1010,4 hPa 0,0 l/m 0,7 km/h (0 Bft) SW 18,0 C 20,4 C 2,3 km/h (1 Bft)
08.08.2013 00:00 19,3 C 89 % 1010,5 hPa 0,0 l/m 0,0 km/h (0 Bft) N 17,5 C 19,3 C 0,0 km/h (0 Bft)
08.08.2013 01:00 18,9 C 91 % 1010,4 hPa 0,0 l/m 0,0 km/h (0 Bft) SO 17,4 C 18,9 C 0,1 km/h (0 Bft)
08.08.2013 02:00 19,3 C 91 % 1010,1 hPa 0,0 l/m 0,2 km/h (0 Bft) N 17,8 C 19,3 C 0,8 km/h (0 Bft)
08.08.2013 03:00 18,8 C 92 % 1010,2 hPa 0,0 l/m 0,0 km/h (0 Bft) N 17,4 C 18,8 C 0,0 km/h (0 Bft)
08.08.2013 04:00 19,0 C 92 % 1010,1 hPa 0,2 l/m 0,2 km/h (0 Bft) SW 17,7 C 19,0 C 1,1 km/h (0 Bft)
08.08.2013 05:00 19,0 C 92 % 1010,1 hPa 0,4 l/m 1,6 km/h (1 Bft) SW 17,6 C 19,0 C 5,5 km/h (2 Bft)
08.08.2013 06:00 18,6 C 93 % 1010,5 hPa 0,0 l/m 0,1 km/h (0 Bft) N 17,4 C 18,6 C 0,8 km/h (0 Bft)
08.08.2013 07:00 18,6 C 92 % 1010,9 hPa 0,0 l/m 2,7 km/h (1 Bft) SW 17,3 C 18,6 C 8,2 km/h (2 Bft)
08.08.2013 08:00 17,9 C 90 % 1011,8 hPa 0,0 l/m 4,4 km/h (1 Bft) W-NW 16,2 C 17,9 C 12,4 km/h (2 Bft)
08.08.2013 09:00 17,9 C 87 % 1012,3 hPa 0,0 l/m 5,3 km/h (1 Bft) W-NW 15,7 C 17,8 C 13,0 km/h (3 Bft)
08.08.2013 10:00 18,1 C 86 % 1012,7 hPa 0,0 l/m 4,3 km/h (1 Bft) S-SW 15,6 C 18,1 C 10,2 km/h (2 Bft)
08.08.2013 11:00 18,6 C 82 % 1013,3 hPa 0,0 l/m 6,5 km/h (2 Bft) W-SW 15,4 C 18,5 C 15,4 km/h (3 Bft)
08.08.2013 12:00 18,5 C 83 % 1013,8 hPa 0,0 l/m 5,3 km/h (1 Bft) W-SW 15,5 C 18,5 C 13,2 km/h (3 Bft)
08.08.2013 13:00 18,4 C 84 % 1014,3 hPa 0,0 l/m 4,8 km/h (1 Bft) W 15,6 C 18,3 C 12,6 km/h (3 Bft)
08.08.2013 14:00 17,5 C 89 % 1015,2 hPa 0,2 l/m 3,7 km/h (1 Bft) W-NW 15,8 C 17,5 C 10,3 km/h (2 Bft)
08.08.2013 15:00 18,6 C 85 % 1015,7 hPa 0,0 l/m 4,8 km/h (1 Bft) NW 16,0 C 18,6 C 11,6 km/h (2 Bft)
08.08.2013 16:00 17,8 C 82 % 1016,4 hPa 0,0 l/m 4,2 km/h (1 Bft) W-NW 14,6 C 17,8 C 10,1 km/h (2 Bft)
08.08.2013 17:00 19,3 C 75 % 1016,6 hPa 0,0 l/m 4,4 km/h (1 Bft) W 14,7 C 19,3 C 11,0 km/h (2 Bft)
08.08.2013 18:00 19,0 C 75 % 1016,9 hPa 0,0 l/m 3,8 km/h (1 Bft) W-NW 14,4 C 19,0 C 9,4 km/h (2 Bft)
08.08.2013 19:00 18,9 C 76 % 1017,2 hPa 0,0 l/m 1,1 km/h (0 Bft) W-NW 14,6 C 18,9 C 4,8 km/h (1 Bft)
08.08.2013 20:00 18,4 C 78 % 1017,6 hPa 0,0 l/m 0,3 km/h (0 Bft) SW 14,4 C 18,4 C 1,6 km/h (1 Bft)
08.08.2013 21:00 16,9 C 82 % 1018,3 hPa 0,0 l/m 0,2 km/h (0 Bft) N 13,9 C 16,9 C 1,7 km/h (1 Bft)
08.08.2013 22:00 15,7 C 83 % 1018,7 hPa 0,0 l/m 1,2 km/h (1 Bft) N-NW 12,9 C 15,7 C 3,6 km/h (1 Bft)
08.08.2013 23:00 14,7 C 84 % 1018,9 hPa 0,0 l/m 0,9 km/h (0 Bft) N 12,1 C 14,7 C 1,7 km/h (1 Bft)
09.08.2013 00:00 13,5 C 87 % 1019,4 hPa 0,0 l/m 0,1 km/h (0 Bft) N 11,4 C 13,5 C 0,5 km/h (0 Bft)
09.08.2013 01:00 11,9 C 90 % 1019,4 hPa 0,0 l/m 0,1 km/h (0 Bft) N 10,2 C 11,9 C 0,9 km/h (0 Bft)
09.08.2013 02:00 11,0 C 93 % 1019,4 hPa 0,0 l/m 0,1 km/h (0 Bft) N 9,9 C 11,0 C 0,4 km/h (0 Bft)
09.08.2013 03:00 10,4 C 93 % 1019,7 hPa 0,0 l/m 0,0 km/h (0 Bft) N 9,3 C 10,4 C 0,3 km/h (0 Bft)
09.08.2013 04:00 9,4 C 94 % 1020,1 hPa 0,0 l/m 0,0 km/h (0 Bft) N 8,5 C 9,4 C 0,3 km/h (0 Bft)
09.08.2013 05:00 9,0 C 95 % 1020,4 hPa 0,0 l/m 0,0 km/h (0 Bft) N 8,2 C 9,0 C 0,3 km/h (0 Bft)
09.08.2013 06:00 8,3 C 95 % 1020,4 hPa 0,0 l/m 0,0 km/h (0 Bft) N 7,6 C 8,3 C 0,0 km/h (0 Bft)
09.08.2013 07:00 10,0 C 96 % 1020,7 hPa 0,0 l/m 0,0 km/h (0 Bft) N 9,4 C 10,0 C 0,0 km/h (0 Bft)
09.08.2013 08:00 12,7 C 94 % 1020,8 hPa 0,0 l/m 1,0 km/h (0 Bft) S-SW 11,7 C 12,7 C 3,3 km/h (1 Bft)
09.08.2013 09:00 16,4 C 80 % 1020,9 hPa 0,2 l/m 2,7 km/h (1 Bft) S-SW 13,0 C 16,4 C 6,8 km/h (2 Bft)
09.08.2013 10:00 18,5 C 69 % 1020,9 hPa 0,0 l/m 3,2 km/h (1 Bft) W 12,6 C 18,5 C 8,4 km/h (2 Bft)
09.08.2013 11:00 19,3 C 63 % 1020,6 hPa 0,0 l/m 3,6 km/h (1 Bft) NW 12,2 C 19,3 C 9,0 km/h (2 Bft)
09.08.2013 12:00 20,4 C 58 % 1020,2 hPa 0,0 l/m 3,2 km/h (1 Bft) N-NW 11,8 C 20,4 C 7,8 km/h (2 Bft)
09.08.2013 13:00 21,1 C 53 % 1019,9 hPa 0,0 l/m 3,7 km/h (1 Bft) S-SW 11,0 C 21,1 C 8,8 km/h (2 Bft)
09.08.2013 14:00 22,0 C 47 % 1019,5 hPa 0,0 l/m 3,5 km/h (1 Bft) W-NW 10,2 C 22,0 C 9,8 km/h (2 Bft)
09.08.2013 15:00 22,7 C 45 % 1019,2 hPa 0,0 l/m 4,1 km/h (1 Bft) O-NO 10,1 C 22,7 C 10,5 km/h (2 Bft)
09.08.2013 16:00 23,0 C 44 % 1019,0 hPa 0,0 l/m 5,3 km/h (1 Bft) N-NO 10,0 C 23,0 C 11,1 km/h (2 Bft)
09.08.2013 17:00 22,8 C 44 % 1018,7 hPa 0,0 l/m 3,3 km/h (1 Bft) W-NW 10,0 C 22,8 C 7,6 km/h (2 Bft)
09.08.2013 18:00 23,3 C 42 % 1018,4 hPa 0,0 l/m 2,2 km/h (1 Bft) W 9,5 C 23,3 C 5,7 km/h (2 Bft)
09.08.2013 19:00 23,1 C 42 % 1018,3 hPa 0,0 l/m 1,5 km/h (1 Bft) NW 9,6 C 23,1 C 4,4 km/h (1 Bft)
09.08.2013 20:00 21,0 C 50 % 1018,3 hPa 0,0 l/m 0,5 km/h (0 Bft) N 10,1 C 21,0 C 1,6 km/h (1 Bft)
09.08.2013 21:00 16,2 C 68 % 1018,8 hPa 0,0 l/m 0,0 km/h (0 Bft) N 10,3 C 16,2 C 0,0 km/h (0 Bft)
09.08.2013 22:00 13,5 C 82 % 1019,1 hPa 0,0 l/m 0,0 km/h (0 Bft) N 10,5 C 13,5 C 0,0 km/h (0 Bft)
09.08.2013 23:00 11,4 C 89 % 1018,9 hPa 0,0 l/m 0,0 km/h (0 Bft) N 9,6 C 11,4 C 0,1 km/h (0 Bft)
10.08.2013 00:00 10,5 C 91 % 1018,8 hPa 0,0 l/m 0,0 km/h (0 Bft) N 9,1 C 10,5 C 0,0 km/h (0 Bft)
10.08.2013 01:00 10,2 C 93 % 1018,7 hPa 0,0 l/m 0,0 km/h (0 Bft) N 9,0 C 10,2 C 0,0 km/h (0 Bft)
10.08.2013 02:00 9,3 C 94 % 1018,5 hPa 0,0 l/m 0,0 km/h (0 Bft) N 8,3 C 9,3 C 0,0 km/h (0 Bft)
10.08.2013 03:00 8,8 C 94 % 1018,3 hPa 0,0 l/m 0,0 km/h (0 Bft) N 7,8 C 8,8 C 0,0 km/h (0 Bft)
10.08.2013 04:00 8,3 C 95 % 1018,0 hPa 0,0 l/m 0,0 km/h (0 Bft) N 7,5 C 8,3 C 0,0 km/h (0 Bft)
10.08.2013 05:00 8,6 C 95 % 1017,5 hPa 0,0 l/m 0,0 km/h (0 Bft) N 7,8 C 8,6 C 0,0 km/h (0 Bft)
10.08.2013 06:00 8,2 C 95 % 1017,4 hPa 0,0 l/m 0,0 km/h (0 Bft) N 7,5 C 8,2 C 0,0 km/h (0 Bft)
10.08.2013 07:00 10,3 C 96 % 1017,6 hPa 0,0 l/m 0,0 km/h (0 Bft) N 9,7 C 10,3 C 0,0 km/h (0 Bft)
10.08.2013 08:00 14,7 C 88 % 1017,7 hPa 0,0 l/m 2,0 km/h (1 Bft) S 12,6 C 14,7 C 4,7 km/h (1 Bft)
10.08.2013 09:00 18,9 C 73 % 1017,4 hPa 0,0 l/m 4,0 km/h (1 Bft) S-SW 13,8 C 18,9 C 9,0 km/h (2 Bft)
10.08.2013 10:00 20,9 C 66 % 1017,1 hPa 0,0 l/m 4,9 km/h (1 Bft) W 14,4 C 20,9 C 11,6 km/h (2 Bft)
10.08.2013 11:00 22,3 C 63 % 1017,0 hPa 0,0 l/m 5,8 km/h (2 Bft) S 14,8 C 22,3 C 14,6 km/h (3 Bft)
10.08.2013 12:00 20,8 C 66 % 1017,0 hPa 0,6 l/m 6,6 km/h (2 Bft) S-SW 14,2 C 20,5 C 16,6 km/h (3 Bft)
10.08.2013 13:00 18,9 C 83 % 1016,9 hPa 0,0 l/m 1,5 km/h (1 Bft) W 15,9 C 18,9 C 4,5 km/h (1 Bft)
10.08.2013 14:00 22,8 C 59 % 1016,5 hPa 0,0 l/m 6,5 km/h (2 Bft) W 14,4 C 22,6 C 15,3 km/h (3 Bft)
10.08.2013 15:00 24,1 C 43 % 1016,1 hPa 0,0 l/m 7,1 km/h (2 Bft) S-SW 10,8 C 23,8 C 17,6 km/h (3 Bft)
10.08.2013 16:00 24,3 C 41 % 1016,0 hPa 0,0 l/m 7,3 km/h (2 Bft) SW 10,2 C 24,0 C 17,6 km/h (3 Bft)
10.08.2013 17:00 23,9 C 42 % 1016,1 hPa 0,0 l/m 6,6 km/h (2 Bft) W-NW 10,4 C 23,8 C 16,1 km/h (3 Bft)
10.08.2013 18:00 22,3 C 48 % 1016,3 hPa 0,0 l/m 5,7 km/h (2 Bft) W-SW 10,6 C 22,2 C 15,7 km/h (3 Bft)
10.08.2013 19:00 21,3 C 51 % 1016,5 hPa 0,0 l/m 3,7 km/h (1 Bft) W 10,9 C 21,3 C 10,1 km/h (2 Bft)
10.08.2013 20:00 20,1 C 54 % 1016,9 hPa 0,0 l/m 3,9 km/h (1 Bft) W 10,6 C 20,1 C 10,4 km/h (2 Bft)
10.08.2013 21:00 17,8 C 64 % 1017,3 hPa 0,0 l/m 0,8 km/h (0 Bft) W 10,8 C 17,8 C 2,9 km/h (1 Bft)
10.08.2013 22:00 15,3 C 74 % 1017,4 hPa 0,0 l/m 0,1 km/h (0 Bft) W-SW 10,6 C 15,3 C 0,8 km/h (0 Bft)
10.08.2013 23:00 15,6 C 73 % 1017,5 hPa 0,0 l/m 1,9 km/h (1 Bft) W-SW 10,8 C 15,6 C 5,6 km/h (2 Bft)
11.08.2013 00:00 15,0 C 74 % 1017,6 hPa 0,0 l/m 1,0 km/h (0 Bft) W-SW 10,4 C 15,0 C 3,5 km/h (1 Bft)
11.08.2013 01:00 15,0 C 73 % 1017,7 hPa 0,0 l/m 2,2 km/h (1 Bft) W-SW 10,3 C 15,0 C 6,7 km/h (2 Bft)
11.08.2013 02:00 14,3 C 70 % 1017,7 hPa 0,0 l/m 1,4 km/h (1 Bft) W-SW 8,8 C 14,3 C 5,5 km/h (2 Bft)
11.08.2013 03:00 12,2 C 77 % 1017,5 hPa 0,0 l/m 0,8 km/h (0 Bft) SW 8,3 C 12,2 C 3,1 km/h (1 Bft)
11.08.2013 04:00 11,5 C 81 % 1017,1 hPa 0,0 l/m 0,9 km/h (0 Bft) S-SO 8,3 C 11,5 C 3,7 km/h (1 Bft)
11.08.2013 05:00 12,7 C 79 % 1016,8 hPa 0,0 l/m 3,1 km/h (1 Bft) SW 9,1 C 12,7 C 8,4 km/h (2 Bft)
11.08.2013 06:00 12,9 C 81 % 1016,7 hPa 0,0 l/m 3,4 km/h (1 Bft) S-SW 9,7 C 12,9 C 9,1 km/h (2 Bft)
11.08.2013 07:00 13,2 C 84 % 1016,9 hPa 0,0 l/m 3,9 km/h (1 Bft) SW 10,5 C 13,2 C 9,9 km/h (2 Bft)
11.08.2013 08:00 13,7 C 85 % 1017,2 hPa 0,0 l/m 4,3 km/h (1 Bft) SW 11,1 C 13,7 C 11,2 km/h (2 Bft)
11.08.2013 09:00 14,8 C 82 % 1017,3 hPa 0,0 l/m 5,1 km/h (1 Bft) S-SW 11,8 C 14,8 C 13,7 km/h (3 Bft)
11.08.2013 10:00 15,0 C 83 % 1017,6 hPa 0,2 l/m 5,4 km/h (1 Bft) W-NW 12,0 C 14,9 C 15,3 km/h (3 Bft)
11.08.2013 11:00 14,8 C 85 % 1017,6 hPa 0,0 l/m 3,8 km/h (1 Bft) W-NW 12,3 C 14,8 C 10,6 km/h (2 Bft)
11.08.2013 12:00 18,1 C 68 % 1017,1 hPa 0,0 l/m 5,4 km/h (2 Bft) W-NW 12,0 C 18,0 C 12,9 km/h (3 Bft)
11.08.2013 13:00 18,9 C 55 % 1016,9 hPa 0,0 l/m 6,8 km/h (2 Bft) W 9,7 C 18,6 C 16,0 km/h (3 Bft)
11.08.2013 14:00 18,3 C 61 % 1016,7 hPa 0,0 l/m 3,6 km/h (1 Bft) W 10,5 C 18,3 C 9,7 km/h (2 Bft)
11.08.2013 15:00 18,7 C 61 % 1016,2 hPa 0,0 l/m 2,6 km/h (1 Bft) W-SW 11,0 C 18,7 C 7,1 km/h (2 Bft)
11.08.2013 16:00 19,8 C 54 % 1015,9 hPa 0,0 l/m 7,2 km/h (2 Bft) S-SW 10,2 C 19,4 C 17,8 km/h (3 Bft)
11.08.2013 17:00 19,6 C 57 % 1015,7 hPa 0,0 l/m 5,6 km/h (2 Bft) W-NW 10,7 C 19,5 C 13,7 km/h (3 Bft)
11.08.2013 18:00 20,0 C 55 % 1015,2 hPa 0,0 l/m 5,4 km/h (1 Bft) W 10,8 C 20,0 C 14,1 km/h (3 Bft)
11.08.2013 19:00 20,0 C 55 % 1015,0 hPa 0,0 l/m 3,7 km/h (1 Bft) SW 10,7 C 20,0 C 9,5 km/h (2 Bft)
11.08.2013 20:00 18,0 C 63 % 1015,0 hPa 0,0 l/m 0,3 km/h (0 Bft) SW 10,8 C 18,0 C 1,2 km/h (1 Bft)
11.08.2013 21:00 15,4 C 73 % 1015,1 hPa 0,0 l/m 0,2 km/h (0 Bft) S 10,7 C 15,4 C 0,5 km/h (0 Bft)
11.08.2013 22:00 16,3 C 71 % 1015,1 hPa 0,0 l/m 1,3 km/h (1 Bft) S-SW 11,0 C 16,3 C 3,5 km/h (1 Bft)
11.08.2013 23:00 16,4 C 73 % 1015,1 hPa 0,0 l/m 3,5 km/h (1 Bft) W-SW 11,6 C 16,4 C 9,3 km/h (2 Bft)
Min-Datum _ 10.08.13 06.08.13 07.08.13 - 05.08.13 - 10.08.13 10.08.13 05.08.13
_ Min-Zeit 06:00 14:40 21:20 - 00:00 - 06:00 06:00 00:00
Minimum _ 7,9 C 38 % 1009,6 hPa - 0,0 km/h (0 Bft) - 7,1 C 7,9 C 0,0 km/h (0 Bft)
Max-Datum _ 05.08.13 05.08.13 05.08.13 06.08.13 07.08.13 - 06.08.13 05.08.13 10.08.13
_ Max-Zeit 16:15 03:35 00:55 05:25 13:50 - 08:55 16:15 12:35
Maximum _ 29,7 C 96 % 1021,2 hPa 0,8 l/m 11,4 km/h
O (2 Bft)
- 19,5 C 29,7 C 30,6 km/h
W-SW (5 Bft)
Durchschnitt _ 18,7 C 74 % 1015,8 hPa #3,8 l/m 2,9 km/h (1 Bft) W-NW 13,4 C 18,6 C 7,3 km/h (2 Bft)